LPPR/OPO METAR and TAF weather

Enter ICAO airport designator
Station Type Date Time Source
LPPR METAR 2021/09/16 22:00 UTC NOAA

LPPR 162200Z VRB02KT CAVOK 17/17 Q1019


Station Type Date Time Source
LPPR Decoded METAR 2021/09/16 22:00 UTC NOAA

Porto / Pedras Rubras, Portugal (LPPR) 41-14N 008-41W 77M
Sep 16, 2021 - 06:00 PM EDT / 2021.09.16 2200 UTC
Wind: Variable at 2 MPH (2 KT):0
Visibility: greater than 7 mile(s):0
Temperature: 62 F (17 C)
Dew Point: 62 F (17 C)
Relative Humidity: 100%
Pressure (altimeter): 30.09 in. Hg (1019 hPa)
ob: LPPR 162200Z VRB02KT CAVOK 17/17 Q1019
cycle: 22

Station Type Date Time Source
LPPR TAF 2021/09/16 18:18 UTC NOAA

TAF LPPR 161700Z 1618/1718 31010KT 9999 FEW010
BECMG 1618/1621 30005KT
TEMPO 1700/1709 VRB02KT 3000 BR SCT003 PROB30
TEMPO 1702/1708 0300 FG BKN001
BECMG 1714/1716 32012KT SCT025

Example: see airport list